sensor_id;sensor_type;location;lat;lon;timestamp;pressure;altitude;pressure_sealevel;temperature;humidity
60087;BME280;45960;53.630;55.972;2023-02-12T00:01:00;101130.34;;;-6.72;70.83
60087;BME280;45960;53.630;55.972;2023-02-12T00:02:01;101138.94;;;-6.73;70.75
60087;BME280;45960;53.630;55.972;2023-02-12T00:03:02;101137.22;;;-6.74;71.03
60087;BME280;45960;53.630;55.972;2023-02-12T00:04:03;101135.53;;;-6.72;70.92
60087;BME280;45960;53.630;55.972;2023-02-12T00:05:05;101132.06;;;-6.71;70.81
60087;BME280;45960;53.630;55.972;2023-02-12T00:06:07;101139.00;;;-6.70;70.65
60087;BME280;45960;53.630;55.972;2023-02-12T00:07:09;101128.66;;;-6.67;70.72
60087;BME280;45960;53.630;55.972;2023-02-12T00:08:10;101123.47;;;-6.67;70.76
60087;BME280;45960;53.630;55.972;2023-02-12T00:09:11;101122.72;;;-6.61;70.67
60087;BME280;45960;53.630;55.972;2023-02-12T00:10:12;101137.47;;;-6.59;70.64
60087;BME280;45960;53.630;55.972;2023-02-12T00:11:15;101127.09;;;-6.59;70.56
60087;BME280;45960;53.630;55.972;2023-02-12T00:12:17;101135.69;;;-6.63;70.61
60087;BME280;45960;53.630;55.972;2023-02-12T00:13:18;101136.34;;;-6.73;70.66
60087;BME280;45960;53.630;55.972;2023-02-12T00:14:19;101135.44;;;-6.75;70.92
60087;BME280;45960;53.630;55.972;2023-02-12T00:15:20;101140.63;;;-6.75;71.07
60087;BME280;45960;53.630;55.972;2023-02-12T00:16:24;101129.41;;;-6.74;71.35
60087;BME280;45960;53.630;55.972;2023-02-12T00:17:26;101129.47;;;-6.71;70.98
60087;BME280;45960;53.630;55.972;2023-02-12T00:18:27;101129.47;;;-6.69;70.69
60087;BME280;45960;53.630;55.972;2023-02-12T00:19:29;101127.69;;;-6.73;70.91
60087;BME280;45960;53.630;55.972;2023-02-12T00:20:30;101125.81;;;-6.81;70.99
60087;BME280;45960;53.630;55.972;2023-02-12T00:21:31;101129.25;;;-6.82;71.09
60087;BME280;45960;53.630;55.972;2023-02-12T00:22:32;101121.47;;;-6.83;71.03
60087;BME280;45960;53.630;55.972;2023-02-12T00:23:34;101123.97;;;-6.86;70.98
60087;BME280;45960;53.630;55.972;2023-02-12T00:24:35;101125.59;;;-6.93;70.94
60087;BME280;45960;53.630;55.972;2023-02-12T00:25:40;101135.06;;;-6.96;71.11
60087;BME280;45960;53.630;55.972;2023-02-12T00:26:41;101127.91;;;-7.08;71.16
60087;BME280;45960;53.630;55.972;2023-02-12T00:27:42;101134.84;;;-7.06;71.35
60087;BME280;45960;53.630;55.972;2023-02-12T00:28:43;101139.97;;;-7.09;71.42
60087;BME280;45960;53.630;55.972;2023-02-12T00:29:44;101133.09;;;-7.07;71.46
60087;BME280;45960;53.630;55.972;2023-02-12T00:30:45;101138.34;;;-7.04;71.17
60087;BME280;45960;53.630;55.972;2023-02-12T00:31:46;101133.00;;;-7.13;71.25
60087;BME280;45960;53.630;55.972;2023-02-12T00:32:48;101134.66;;;-7.15;71.30
60087;BME280;45960;53.630;55.972;2023-02-12T00:33:49;101132.13;;;-7.13;71.43
60087;BME280;45960;53.630;55.972;2023-02-12T00:34:50;101123.50;;;-7.11;71.42
60087;BME280;45960;53.630;55.972;2023-02-12T00:35:55;101126.22;;;-7.05;71.52
60087;BME280;45960;53.630;55.972;2023-02-12T00:36:56;101133.16;;;-7.04;71.34
60087;BME280;45960;53.630;55.972;2023-02-12T00:37:57;101131.41;;;-7.05;71.43
60087;BME280;45960;53.630;55.972;2023-02-12T00:38:59;101126.16;;;-7.08;71.25
60087;BME280;45960;53.630;55.972;2023-02-12T00:40:00;101130.50;;;-7.07;71.35
60087;BME280;45960;53.630;55.972;2023-02-12T00:41:02;101125.25;;;-7.10;71.45
60087;BME280;45960;53.630;55.972;2023-02-12T00:42:04;101122.66;;;-7.10;71.47
60087;BME280;45960;53.630;55.972;2023-02-12T00:43:05;101127.00;;;-7.09;71.51
60087;BME280;45960;53.630;55.972;2023-02-12T00:44:06;101129.59;;;-7.09;71.61
60087;BME280;45960;53.630;55.972;2023-02-12T00:45:09;101136.63;;;-7.05;71.48
60087;BME280;45960;53.630;55.972;2023-02-12T00:46:10;101134.78;;;-7.09;71.43
60087;BME280;45960;53.630;55.972;2023-02-12T00:47:11;101127.78;;;-7.13;71.22
60087;BME280;45960;53.630;55.972;2023-02-12T00:48:13;101132.94;;;-7.16;71.41
60087;BME280;45960;53.630;55.972;2023-02-12T00:49:15;101137.09;;;-7.24;71.72
60087;BME280;45960;53.630;55.972;2023-02-12T00:50:18;101132.88;;;-7.19;71.47
60087;BME280;45960;53.630;55.972;2023-02-12T00:51:20;101129.34;;;-7.21;71.47
60087;BME280;45960;53.630;55.972;2023-02-12T00:52:21;101128.44;;;-7.23;71.35
60087;BME280;45960;53.630;55.972;2023-02-12T00:53:24;101138.81;;;-7.25;71.86
60087;BME280;45960;53.630;55.972;2023-02-12T00:54:25;101133.63;;;-7.23;72.31
60087;BME280;45960;53.630;55.972;2023-02-12T00:55:26;101122.22;;;-7.31;71.99
60087;BME280;45960;53.630;55.972;2023-02-12T00:56:27;101131.03;;;-7.23;71.75
60087;BME280;45960;53.630;55.972;2023-02-12T00:57:28;101133.69;;;-7.22;71.44
60087;BME280;45960;53.630;55.972;2023-02-12T00:58:30;101133.50;;;-7.31;71.58
60087;BME280;45960;53.630;55.972;2023-02-12T00:59:33;101133.44;;;-7.32;71.89
60087;BME280;45960;53.630;55.972;2023-02-12T01:00:37;101127.41;;;-7.31;72.00
60087;BME280;45960;53.630;55.972;2023-02-12T01:01:38;101135.25;;;-7.28;71.82
60087;BME280;45960;53.630;55.972;2023-02-12T01:02:39;101124.09;;;-7.24;72.04
60087;BME280;45960;53.630;55.972;2023-02-12T01:03:41;101129.28;;;-7.24;71.39
60087;BME280;45960;53.630;55.972;2023-02-12T01:04:42;101125.78;;;-7.26;71.59
60087;BME280;45960;53.630;55.972;2023-02-12T01:05:43;101138.13;;;-7.16;71.43
60087;BME280;45960;53.630;55.972;2023-02-12T01:06:45;101139.88;;;-7.15;71.33
60087;BME280;45960;53.630;55.972;2023-02-12T01:07:50;101137.31;;;-7.13;71.52
60087;BME280;45960;53.630;55.972;2023-02-12T01:08:51;101139.91;;;-7.12;71.31
60087;BME280;45960;53.630;55.972;2023-02-12T01:09:53;101135.59;;;-7.11;71.38
60087;BME280;45960;53.630;55.972;2023-02-12T01:10:59;101138.19;;;-7.13;71.15
60087;BME280;45960;53.630;55.972;2023-02-12T01:12:00;101132.94;;;-7.14;71.09
60087;BME280;45960;53.630;55.972;2023-02-12T01:13:01;101134.59;;;-7.18;71.19
60087;BME280;45960;53.630;55.972;2023-02-12T01:14:03;101133.69;;;-7.20;71.50
60087;BME280;45960;53.630;55.972;2023-02-12T01:15:05;101134.44;;;-7.27;71.26
60087;BME280;45960;53.630;55.972;2023-02-12T01:16:15;101144.81;;;-7.27;71.50
60087;BME280;45960;53.630;55.972;2023-02-12T01:17:16;101146.50;;;-7.29;71.32
60087;BME280;45960;53.630;55.972;2023-02-12T01:18:18;101145.56;;;-7.33;71.54
60087;BME280;45960;53.630;55.972;2023-02-12T01:19:19;101150.75;;;-7.31;71.53
60087;BME280;45960;53.630;55.972;2023-02-12T01:20:21;101151.50;;;-7.38;71.41
60087;BME280;45960;53.630;55.972;2023-02-12T01:21:27;101153.03;;;-7.47;71.56
60087;BME280;45960;53.630;55.972;2023-02-12T01:22:29;101145.97;;;-7.54;71.75
60087;BME280;45960;53.630;55.972;2023-02-12T01:23:30;101145.97;;;-7.54;71.92
60087;BME280;45960;53.630;55.972;2023-02-12T01:24:31;101148.63;;;-7.51;71.96
60087;BME280;45960;53.630;55.972;2023-02-12T01:25:32;101149.47;;;-7.52;71.66
60087;BME280;45960;53.630;55.972;2023-02-12T01:26:33;101154.66;;;-7.52;72.11
60087;BME280;45960;53.630;55.972;2023-02-12T01:27:34;101161.59;;;-7.51;71.96
60087;BME280;45960;53.630;55.972;2023-02-12T01:28:40;101150.41;;;-7.48;71.82
60087;BME280;45960;53.630;55.972;2023-02-12T01:29:42;101151.25;;;-7.49;71.96
60087;BME280;45960;53.630;55.972;2023-02-12T01:30:44;101151.31;;;-7.48;71.81
60087;BME280;45960;53.630;55.972;2023-02-12T01:31:45;101151.31;;;-7.48;71.94
60087;BME280;45960;53.630;55.972;2023-02-12T01:32:46;101145.06;;;-7.56;71.93
60087;BME280;45960;53.630;55.972;2023-02-12T01:33:48;101144.22;;;-7.55;71.72
60087;BME280;45960;53.630;55.972;2023-02-12T01:34:50;101152.75;;;-7.59;71.62
60087;BME280;45960;53.630;55.972;2023-02-12T01:35:54;101143.28;;;-7.58;71.67
60087;BME280;45960;53.630;55.972;2023-02-12T01:36:56;101145.69;;;-7.66;71.66
60087;BME280;45960;53.630;55.972;2023-02-12T01:37:57;101147.22;;;-7.74;71.79
60087;BME280;45960;53.630;55.972;2023-02-12T01:39:00;101141.03;;;-7.81;72.27
60087;BME280;45960;53.630;55.972;2023-02-12T01:40:03;101142.72;;;-7.83;72.43
60087;BME280;45960;53.630;55.972;2023-02-12T01:41:13;101148.84;;;-7.79;72.59
60087;BME280;45960;53.630;55.972;2023-02-12T01:42:15;101141.91;;;-7.80;72.47
60087;BME280;45960;53.630;55.972;2023-02-12T01:43:18;101148.97;;;-7.73;72.30
60087;BME280;45960;53.630;55.972;2023-02-12T01:44:22;101162.94;;;-7.68;72.17
60087;BME280;45960;53.630;55.972;2023-02-12T01:45:36;101157.59;;;-7.74;72.04
60087;BME280;45960;53.630;55.972;2023-02-12T01:46:42;101154.09;;;-7.76;72.11
60087;BME280;45960;53.630;55.972;2023-02-12T01:47:44;101153.09;;;-7.83;72.24
60087;BME280;45960;53.630;55.972;2023-02-12T01:48:46;101151.38;;;-7.82;72.38
60087;BME280;45960;53.630;55.972;2023-02-12T01:49:47;101150.63;;;-7.78;72.33
60087;BME280;45960;53.630;55.972;2023-02-12T01:50:50;101148.97;;;-7.73;72.38
60087;BME280;45960;53.630;55.972;2023-02-12T01:52:10;101146.38;;;-7.73;72.29
60087;BME280;45960;53.630;55.972;2023-02-12T01:53:14;101152.41;;;-7.74;72.12
60087;BME280;45960;53.630;55.972;2023-02-12T01:54:20;101148.91;;;-7.76;72.04
60087;BME280;45960;53.630;55.972;2023-02-12T01:55:22;101154.97;;;-7.76;72.23
60087;BME280;45960;53.630;55.972;2023-02-12T01:56:24;101152.50;;;-7.71;71.97
60087;BME280;45960;53.630;55.972;2023-02-12T01:57:27;101150.81;;;-7.69;71.92
60087;BME280;45960;53.630;55.972;2023-02-12T01:58:34;101160.31;;;-7.70;71.84
60087;BME280;45960;53.630;55.972;2023-02-12T01:59:36;101150.75;;;-7.72;71.89
60087;BME280;45960;53.630;55.972;2023-02-12T02:00:39;101155.94;;;-7.72;72.00
60087;BME280;45960;53.630;55.972;2023-02-12T02:01:40;101164.72;;;-7.67;71.97
60087;BME280;45960;53.630;55.972;2023-02-12T02:02:44;101160.31;;;-7.70;71.75
60087;BME280;45960;53.630;55.972;2023-02-12T02:03:51;101162.13;;;-7.67;71.85
60087;BME280;45960;53.630;55.972;2023-02-12T02:04:57;101162.13;;;-7.67;71.81
60087;BME280;45960;53.630;55.972;2023-02-12T02:06:03;101161.22;;;-7.68;71.66
60087;BME280;45960;53.630;55.972;2023-02-12T02:07:07;101161.25;;;-7.66;71.53
60087;BME280;45960;53.630;55.972;2023-02-12T02:08:11;101156.03;;;-7.68;71.65
60087;BME280;45960;53.630;55.972;2023-02-12T02:09:13;101156.94;;;-7.66;71.74
60087;BME280;45960;53.630;55.972;2023-02-12T02:10:16;101156.06;;;-7.66;71.48
60087;BME280;45960;53.630;55.972;2023-02-12T02:11:17;101153.44;;;-7.68;71.55
60087;BME280;45960;53.630;55.972;2023-02-12T02:12:37;101149.03;;;-7.70;71.58
60087;BME280;45960;53.630;55.972;2023-02-12T02:13:56;101160.16;;;-7.76;71.54
60087;BME280;45960;53.630;55.972;2023-02-12T02:15:16;101150.50;;;-7.81;71.79
60087;BME280;45960;53.630;55.972;2023-02-12T02:16:24;101160.81;;;-7.84;71.95
60087;BME280;45960;53.630;55.972;2023-02-12T02:19:05;101165.13;;;-7.86;72.17
60087;BME280;45960;53.630;55.972;2023-02-12T02:23:50;101167.66;;;-7.90;72.04
60087;BME280;45960;53.630;55.972;2023-02-12T02:31:25;101159.06;;;-7.85;71.83
60087;BME280;45960;53.630;55.972;2023-02-12T02:32:33;101155.81;;;-7.78;71.57
60087;BME280;45960;53.630;55.972;2023-02-12T02:33:51;101159.22;;;-7.79;71.49
60087;BME280;45960;53.630;55.972;2023-02-12T02:37:32;101164.59;;;-7.70;71.44
60087;BME280;45960;53.630;55.972;2023-02-12T02:38:42;101155.88;;;-7.75;71.39
60087;BME280;45960;53.630;55.972;2023-02-12T02:41:15;101162.66;;;-7.80;71.50
60087;BME280;45960;53.630;55.972;2023-02-12T02:42:29;101164.34;;;-7.82;71.82
60087;BME280;45960;53.630;55.972;2023-02-12T02:43:41;101160.81;;;-7.84;71.79
60087;BME280;45960;53.630;55.972;2023-02-12T02:44:51;101159.94;;;-7.86;71.93
60087;BME280;45960;53.630;55.972;2023-02-12T02:46:26;101167.72;;;-7.86;72.14
60087;BME280;45960;53.630;55.972;2023-02-12T02:47:34;101169.25;;;-7.95;72.51
60087;BME280;45960;53.630;55.972;2023-02-12T02:48:43;101169.16;;;-7.98;72.60
60087;BME280;45960;53.630;55.972;2023-02-12T02:50:08;101169.31;;;-7.92;72.83
60087;BME280;45960;53.630;55.972;2023-02-12T02:51:15;101170.31;;;-7.86;72.83
60087;BME280;45960;53.630;55.972;2023-02-12T02:52:29;101178.09;;;-7.86;72.64
60087;BME280;45960;53.630;55.972;2023-02-12T02:53:41;101171.13;;;-7.88;72.67
60087;BME280;45960;53.630;55.972;2023-02-12T02:54:47;101164.13;;;-7.92;72.78
60087;BME280;45960;53.630;55.972;2023-02-12T02:55:52;101176.25;;;-7.91;72.85
60087;BME280;45960;53.630;55.972;2023-02-12T02:57:02;101173.69;;;-7.89;73.00
60087;BME280;45960;53.630;55.972;2023-02-12T02:58:47;101171.19;;;-7.84;72.87
60087;BME280;45960;53.630;55.972;2023-02-12T03:00:15;101172.19;;;-7.79;72.99
60087;BME280;45960;53.630;55.972;2023-02-12T03:02:31;101169.53;;;-7.82;72.75
60087;BME280;45960;53.630;55.972;2023-02-12T03:03:41;101182.47;;;-7.84;72.91
60087;BME280;45960;53.630;55.972;2023-02-12T03:04:54;101176.56;;;-7.78;72.78
60087;BME280;45960;53.630;55.972;2023-02-12T03:06:03;101159.22;;;-7.79;72.54
60087;BME280;45960;53.630;55.972;2023-02-12T03:07:09;101171.44;;;-7.75;72.68
60087;BME280;45960;53.630;55.972;2023-02-12T03:08:15;101174.03;;;-7.75;72.60
60087;BME280;45960;53.630;55.972;2023-02-12T03:09:26;101168.78;;;-7.77;72.54
60087;BME280;45960;53.630;55.972;2023-02-12T03:10:39;101177.44;;;-7.76;72.74
60087;BME280;45960;53.630;55.972;2023-02-12T03:11:42;101174.84;;;-7.76;72.53
60087;BME280;45960;53.630;55.972;2023-02-12T03:12:51;101171.50;;;-7.72;72.73
60087;BME280;45960;53.630;55.972;2023-02-12T03:14:22;101173.31;;;-7.68;72.62
60087;BME280;45960;53.630;55.972;2023-02-12T03:15:41;101171.56;;;-7.69;72.57
60087;BME280;45960;53.630;55.972;2023-02-12T03:17:24;101173.28;;;-7.70;72.51
60087;BME280;45960;53.630;55.972;2023-02-12T03:18:32;101179.44;;;-7.66;72.42
60087;BME280;45960;53.630;55.972;2023-02-12T03:19:45;101181.16;;;-7.65;72.44
60087;BME280;45960;53.630;55.972;2023-02-12T03:20:51;101182.88;;;-7.67;72.25
60087;BME280;45960;53.630;55.972;2023-02-12T03:22:11;101184.28;;;-7.80;72.46
60087;BME280;45960;53.630;55.972;2023-02-12T03:23:19;101190.28;;;-7.82;72.84
60087;BME280;45960;53.630;55.972;2023-02-12T03:25:32;101180.50;;;-7.93;72.73
60087;BME280;45960;53.630;55.972;2023-02-12T03:26:55;101184.72;;;-7.98;72.94
60087;BME280;45960;53.630;55.972;2023-02-12T03:28:08;101183.94;;;-7.94;72.80
60087;BME280;45960;53.630;55.972;2023-02-12T03:29:11;101179.69;;;-7.92;72.71
60087;BME280;45960;53.630;55.972;2023-02-12T03:30:13;101183.09;;;-7.93;72.80
60087;BME280;45960;53.630;55.972;2023-02-12T03:32:54;101188.00;;;-8.05;72.68
60087;BME280;45960;53.630;55.972;2023-02-12T03:35:20;101184.34;;;-8.13;73.09
60087;BME280;45960;53.630;55.972;2023-02-12T03:37:55;101184.25;;;-8.16;73.34
60087;BME280;45960;53.630;55.972;2023-02-12T03:39:26;101178.22;;;-8.17;73.28
60087;BME280;45960;53.630;55.972;2023-02-12T03:40:33;101181.00;;;-8.09;73.30
60087;BME280;45960;53.630;55.972;2023-02-12T03:41:42;101174.91;;;-8.10;73.16
60087;BME280;45960;53.630;55.972;2023-02-12T03:46:45;101173.28;;;-8.06;73.27
60087;BME280;45960;53.630;55.972;2023-02-12T03:49:16;101173.97;;;-8.13;73.06
60087;BME280;45960;53.630;55.972;2023-02-12T03:51:31;101182.66;;;-8.11;73.00
60087;BME280;45960;53.630;55.972;2023-02-12T03:52:34;101179.16;;;-8.13;73.24
60087;BME280;45960;53.630;55.972;2023-02-12T03:53:35;101175.81;;;-8.09;73.29
60087;BME280;45960;53.630;55.972;2023-02-12T03:54:37;101181.16;;;-8.03;73.09
60087;BME280;45960;53.630;55.972;2023-02-12T03:55:41;101174.22;;;-8.02;73.05
60087;BME280;45960;53.630;55.972;2023-02-12T03:58:08;101174.19;;;-8.04;73.23
60087;BME280;45960;53.630;55.972;2023-02-12T03:59:11;101169.91;;;-8.03;73.05
60087;BME280;45960;53.630;55.972;2023-02-12T04:00:17;101179.53;;;-7.98;72.99
60087;BME280;45960;53.630;55.972;2023-02-12T04:01:21;101178.75;;;-7.94;73.03
60087;BME280;45960;53.630;55.972;2023-02-12T04:02:22;101173.56;;;-7.94;72.82
60087;BME280;45960;53.630;55.972;2023-02-12T04:03:24;101170.00;;;-7.99;73.10
60087;BME280;45960;53.630;55.972;2023-02-12T04:04:25;101175.16;;;-8.00;73.05
60087;BME280;45960;53.630;55.972;2023-02-12T04:05:27;101175.97;;;-8.03;73.29
60087;BME280;45960;53.630;55.972;2023-02-12T04:06:28;101175.09;;;-8.02;73.33
60087;BME280;45960;53.630;55.972;2023-02-12T04:07:29;101173.38;;;-8.01;73.18
60087;BME280;45960;53.630;55.972;2023-02-12T04:08:31;101170.84;;;-8.00;73.21
60087;BME280;45960;53.630;55.972;2023-02-12T04:09:32;101169.16;;;-7.98;73.25
60087;BME280;45960;53.630;55.972;2023-02-12T04:11:45;101165.78;;;-7.94;73.12
60087;BME280;45960;53.630;55.972;2023-02-12T04:19:49;101170.91;;;-7.97;73.50
60087;BME280;45960;53.630;55.972;2023-02-12T04:21:05;101179.47;;;-8.01;74.00
60087;BME280;45960;53.630;55.972;2023-02-12T04:22:23;101175.97;;;-8.03;74.39
60087;BME280;45960;53.630;55.972;2023-02-12T04:23:43;101172.59;;;-7.99;74.58
60087;BME280;45960;53.630;55.972;2023-02-12T04:26:23;101179.69;;;-7.92;74.75
60087;BME280;45960;53.630;55.972;2023-02-12T04:30:23;101183.34;;;-7.83;74.41
60087;BME280;45960;53.630;55.972;2023-02-12T04:32:51;101192.59;;;-7.93;74.81
60087;BME280;45960;53.630;55.972;2023-02-12T04:34:17;101192.34;;;-8.04;75.43
60087;BME280;45960;53.630;55.972;2023-02-12T04:35:24;101181.06;;;-8.06;75.71
60087;BME280;45960;53.630;55.972;2023-02-12T04:36:32;101197.56;;;-8.02;75.74
60087;BME280;45960;53.630;55.972;2023-02-12T04:38:04;101189.84;;;-8.01;75.76
60087;BME280;45960;53.630;55.972;2023-02-12T04:39:07;101186.41;;;-8.00;75.99
60087;BME280;45960;53.630;55.972;2023-02-12T04:40:13;101189.00;;;-7.98;76.08
60087;BME280;45960;53.630;55.972;2023-02-12T04:41:15;101200.28;;;-7.98;76.10
60087;BME280;45960;53.630;55.972;2023-02-12T04:42:16;101190.00;;;-7.95;75.89
60087;BME280;45960;53.630;55.972;2023-02-12T04:43:27;101207.16;;;-7.98;76.07
60087;BME280;45960;53.630;55.972;2023-02-12T04:44:31;101199.25;;;-8.04;76.32
60087;BME280;45960;53.630;55.972;2023-02-12T04:45:34;101203.63;;;-8.02;76.32
60087;BME280;45960;53.630;55.972;2023-02-12T04:46:35;101195.94;;;-7.99;76.46
60087;BME280;45960;53.630;55.972;2023-02-12T04:47:37;101198.59;;;-7.96;76.47
60087;BME280;45960;53.630;55.972;2023-02-12T04:48:55;101201.97;;;-8.00;76.43
60087;BME280;45960;53.630;55.972;2023-02-12T04:49:57;101194.94;;;-8.04;76.74
60087;BME280;45960;53.630;55.972;2023-02-12T04:50:58;101203.63;;;-8.02;76.74
60087;BME280;45960;53.630;55.972;2023-02-12T04:51:59;101195.09;;;-7.98;76.89
60087;BME280;45960;53.630;55.972;2023-02-12T04:53:01;101199.50;;;-7.94;76.50
60087;BME280;45960;53.630;55.972;2023-02-12T04:54:02;101197.06;;;-7.88;76.55
60087;BME280;45960;53.630;55.972;2023-02-12T04:55:03;101192.03;;;-7.81;76.45
60087;BME280;45960;53.630;55.972;2023-02-12T04:56:04;101202.50;;;-7.78;76.47
60087;BME280;45960;53.630;55.972;2023-02-12T04:57:05;101198.25;;;-7.75;76.28
60087;BME280;45960;53.630;55.972;2023-02-12T04:58:06;101195.75;;;-7.70;76.25
60087;BME280;45960;53.630;55.972;2023-02-12T04:59:08;101215.56;;;-7.74;76.25
60087;BME280;45960;53.630;55.972;2023-02-12T05:00:11;101192.03;;;-7.81;76.25
60087;BME280;45960;53.630;55.972;2023-02-12T05:01:13;101192.91;;;-7.81;76.42
60087;BME280;45960;53.630;55.972;2023-02-12T05:02:14;101191.88;;;-7.88;76.56
60087;BME280;45960;53.630;55.972;2023-02-12T05:03:15;101204.09;;;-7.83;76.88
60087;BME280;45960;53.630;55.972;2023-02-12T05:04:17;101213.69;;;-7.81;76.70
60087;BME280;45960;53.630;55.972;2023-02-12T05:05:19;101214.47;;;-7.83;76.75
60087;BME280;45960;53.630;55.972;2023-02-12T05:06:20;101209.28;;;-7.83;76.73
60087;BME280;45960;53.630;55.972;2023-02-12T05:07:21;101204.25;;;-7.77;76.89
60087;BME280;45960;53.630;55.972;2023-02-12T05:08:22;101213.00;;;-7.72;76.49
60087;BME280;45960;53.630;55.972;2023-02-12T05:09:23;101213.81;;;-7.75;76.69
60087;BME280;45960;53.630;55.972;2023-02-12T05:10:24;101219.81;;;-7.77;76.59
60087;BME280;45960;53.630;55.972;2023-02-12T05:11:25;101221.56;;;-7.76;76.56
60087;BME280;45960;53.630;55.972;2023-02-12T05:12:26;101213.00;;;-7.72;76.59
60087;BME280;45960;53.630;55.972;2023-02-12T05:13:27;101211.16;;;-7.76;76.45
60087;BME280;45960;53.630;55.972;2023-02-12T05:14:28;101214.53;;;-7.80;76.57
60087;BME280;45960;53.630;55.972;2023-02-12T05:15:29;101214.53;;;-7.80;76.71
60087;BME280;45960;53.630;55.972;2023-02-12T05:16:30;101212.69;;;-7.84;76.73
60087;BME280;45960;53.630;55.972;2023-02-12T05:17:32;101203.19;;;-7.85;76.83
60087;BME280;45960;53.630;55.972;2023-02-12T05:18:34;101212.69;;;-7.86;76.61
60087;BME280;45960;53.630;55.972;2023-02-12T05:19:35;101209.34;;;-7.80;76.69
60087;BME280;45960;53.630;55.972;2023-02-12T05:20:36;101223.88;;;-7.87;76.34
60087;BME280;45960;53.630;55.972;2023-02-12T05:21:37;101205.34;;;-8.02;76.50
60087;BME280;45960;53.630;55.972;2023-02-12T05:22:38;101214.88;;;-8.01;76.67
60087;BME280;45960;53.630;55.972;2023-02-12T05:23:40;101229.53;;;-8.03;76.81
60087;BME280;45960;53.630;55.972;2023-02-12T05:24:41;101216.41;;;-8.10;76.79
60087;BME280;45960;53.630;55.972;2023-02-12T05:25:42;101221.41;;;-8.17;76.83
60087;BME280;45960;53.630;55.972;2023-02-12T05:26:43;101218.75;;;-8.20;76.96
60087;BME280;45960;53.630;55.972;2023-02-12T05:27:44;101219.53;;;-8.23;77.16
60087;BME280;45960;53.630;55.972;2023-02-12T05:28:46;101224.00;;;-8.17;77.16
60087;BME280;45960;53.630;55.972;2023-02-12T05:29:47;101231.00;;;-8.13;76.96
60087;BME280;45960;53.630;55.972;2023-02-12T05:30:48;101228.50;;;-8.10;77.17
60087;BME280;45960;53.630;55.972;2023-02-12T05:31:49;101222.63;;;-8.03;76.90
60087;BME280;45960;53.630;55.972;2023-02-12T05:32:50;101210.59;;;-8.01;76.95
60087;BME280;45960;53.630;55.972;2023-02-12T05:33:51;101227.91;;;-8.00;76.81
60087;BME280;45960;53.630;55.972;2023-02-12T05:34:52;101218.41;;;-7.99;76.72
60087;BME280;45960;53.630;55.972;2023-02-12T05:35:53;101222.84;;;-7.95;76.76
60087;BME280;45960;53.630;55.972;2023-02-12T05:36:55;101229.91;;;-7.90;76.46
60087;BME280;45960;53.630;55.972;2023-02-12T05:37:56;101212.69;;;-7.84;76.38
60087;BME280;45960;53.630;55.972;2023-02-12T05:38:58;101217.81;;;-7.88;76.30
60087;BME280;45960;53.630;55.972;2023-02-12T05:40:00;101227.97;;;-7.97;76.12
60087;BME280;45960;53.630;55.972;2023-02-12T05:41:06;101226.91;;;-8.05;76.29
60087;BME280;45960;53.630;55.972;2023-02-12T05:42:07;101225.97;;;-8.07;76.46
60087;BME280;45960;53.630;55.972;2023-02-12T05:43:09;101229.63;;;-7.99;76.52
60087;BME280;45960;53.630;55.972;2023-02-12T05:44:10;101221.03;;;-7.98;76.74
60087;BME280;45960;53.630;55.972;2023-02-12T05:45:11;101224.59;;;-7.93;76.58
60087;BME280;45960;53.630;55.972;2023-02-12T05:46:12;101226.44;;;-7.89;76.19
60087;BME280;45960;53.630;55.972;2023-02-12T05:47:14;101223.66;;;-7.96;76.22
60087;BME280;45960;53.630;55.972;2023-02-12T05:48:15;101229.50;;;-8.05;76.51
60087;BME280;45960;53.630;55.972;2023-02-12T05:49:16;101229.41;;;-8.08;76.60
60087;BME280;45960;53.630;55.972;2023-02-12T05:50:17;101220.78;;;-8.07;76.68
60087;BME280;45960;53.630;55.972;2023-02-12T05:51:22;101233.09;;;-8.00;76.57
60087;BME280;45960;53.630;55.972;2023-02-12T05:52:23;101228.13;;;-7.91;76.68
60087;BME280;45960;53.630;55.972;2023-02-12T05:53:24;101226.53;;;-7.85;76.50
60087;BME280;45960;53.630;55.972;2023-02-12T05:54:25;101223.16;;;-7.81;76.39
60087;BME280;45960;53.630;55.972;2023-02-12T05:55:26;101229.16;;;-7.84;76.25
60087;BME280;45960;53.630;55.972;2023-02-12T05:56:35;101239.50;;;-7.85;76.13
60087;BME280;45960;53.630;55.972;2023-02-12T05:57:36;101219.19;;;-8.02;76.22
60087;BME280;45960;53.630;55.972;2023-02-12T05:58:38;101233.00;;;-8.03;76.15
60087;BME280;45960;53.630;55.972;2023-02-12T05:59:39;101213.63;;;-8.17;76.40
60087;BME280;45960;53.630;55.972;2023-02-12T06:00:40;101231.22;;;-8.04;76.40
60087;BME280;45960;53.630;55.972;2023-02-12T06:01:42;101234.97;;;-7.93;76.42
60087;BME280;45960;53.630;55.972;2023-02-12T06:02:44;101230.03;;;-7.83;76.16
60087;BME280;45960;53.630;55.972;2023-02-12T06:03:45;101231.72;;;-7.85;75.78
60087;BME280;45960;53.630;55.972;2023-02-12T06:04:46;101224.59;;;-7.93;75.68
60087;BME280;45960;53.630;55.972;2023-02-12T06:05:51;101233.22;;;-7.95;75.91
60087;BME280;45960;53.630;55.972;2023-02-12T06:06:53;101231.34;;;-8.01;76.10
60087;BME280;45960;53.630;55.972;2023-02-12T06:07:55;101241.78;;;-7.98;75.89
60087;BME280;45960;53.630;55.972;2023-02-12T06:08:56;101249.50;;;-7.99;75.73
60087;BME280;45960;53.630;55.972;2023-02-12T06:09:58;101239.00;;;-8.05;75.66
60087;BME280;45960;53.630;55.972;2023-02-12T06:11:01;101228.63;;;-8.05;75.90
60087;BME280;45960;53.630;55.972;2023-02-12T06:12:02;101233.81;;;-8.04;75.71
60087;BME280;45960;53.630;55.972;2023-02-12T06:13:04;101236.34;;;-8.07;75.54
60087;BME280;45960;53.630;55.972;2023-02-12T06:14:06;101239.78;;;-8.08;75.74
60087;BME280;45960;53.630;55.972;2023-02-12T06:15:08;101241.59;;;-8.04;75.59
60087;BME280;45960;53.630;55.972;2023-02-12T06:17:20;101239.78;;;-8.08;75.70
60087;BME280;45960;53.630;55.972;2023-02-12T06:18:22;101234.59;;;-8.08;75.45
60087;BME280;45960;53.630;55.972;2023-02-12T06:19:23;101237.84;;;-8.15;75.46